Time;durP1;ratioP1;P1;durP2;ratioP2;P2;SDS_P1;SDS_P2;PMS_P1;PMS_P2;Temp;Humidity;BMP_temperature;BMP_pressure;BME280_temperature;BME280_humidity;BME280_pressure;Samples;Min_cycle;Max_cycle;Signal;HPM_P1;HPM_P2
2023/03/06 00:00:17;;;;;;;5.03;2.90;;;3.40;99.90;;;;;;5070002;28;20218;-75
2023/03/06 00:02:45;;;;;;;5.32;3.67;;;3.30;99.90;;;;;;5053372;28;20234;-75
2023/03/06 00:05:12;;;;;;;2.97;2.47;;;3.30;99.90;;;;;;5054696;28;20205;-76
2023/03/06 00:07:39;;;;;;;3.75;2.67;;;3.30;99.90;;;;;;5062097;28;20660;-76
2023/03/06 00:10:07;;;;;;;5.22;3.03;;;3.30;99.90;;;;;;5059185;28;20311;-77
2023/03/06 00:12:34;;;;;;;3.97;3.30;;;3.30;99.90;;;;;;5056991;28;20243;-76
2023/03/06 00:15:01;;;;;;;3.67;3.22;;;3.30;99.90;;;;;;5060476;28;20208;-76
2023/03/06 00:17:28;;;;;;;5.25;3.33;;;3.40;99.90;;;;;;5069294;28;20291;-76
2023/03/06 00:19:58;;;;;;;5.35;2.88;;;3.40;99.90;;;;;;5061798;28;20223;-75
2023/03/06 00:22:24;;;;;;;5.18;4.15;;;3.40;99.90;;;;;;5050131;28;20213;-77
2023/03/06 00:24:54;;;;;;;4.90;2.63;;;3.40;99.90;;;;;;5069276;28;20278;-75
2023/03/06 00:27:22;;;;;;;3.58;3.15;;;3.40;99.90;;;;;;5059929;28;20210;-76
2023/03/06 00:29:49;;;;;;;3.22;2.70;;;3.40;99.90;;;;;;5062539;28;20596;-76
2023/03/06 00:32:17;;;;;;;3.60;3.20;;;3.40;99.90;;;;;;5059049;28;20510;-77
2023/03/06 00:34:48;;;;;;;4.55;3.05;;;3.40;99.90;;;;;;5058482;28;20290;-78
2023/03/06 00:37:16;;;;;;;4.18;3.40;;;3.40;99.90;;;;;;5054217;28;20218;-76
2023/03/06 00:39:44;;;;;;;3.40;3.08;;;3.40;99.90;;;;;;5045409;28;20269;-77
2023/03/06 00:42:11;;;;;;;4.22;2.92;;;3.40;99.90;;;;;;5068025;28;20196;-76
2023/03/06 00:44:38;;;;;;;2.38;1.83;;;3.40;99.90;;;;;;5063963;28;20280;-76
2023/03/06 00:47:06;;;;;;;2.45;2.25;;;3.40;99.90;;;;;;5053665;28;20222;-76
2023/03/06 00:49:33;;;;;;;4.00;2.67;;;3.40;99.90;;;;;;5059400;28;20291;-76
2023/03/06 00:52:00;;;;;;;3.28;1.98;;;3.30;99.90;;;;;;5056305;28;20206;-75
2023/03/06 00:54:28;;;;;;;4.45;2.00;;;3.30;99.90;;;;;;5058769;28;20208;-76
2023/03/06 00:56:55;;;;;;;2.22;1.50;;;3.20;99.90;;;;;;5056566;28;20717;-76
2023/03/06 00:59:22;;;;;;;2.58;1.75;;;3.20;99.90;;;;;;5065088;28;20264;-76
2023/03/06 01:01:49;;;;;;;3.60;2.22;;;3.20;99.90;;;;;;5051260;28;20230;-76
2023/03/06 01:04:16;;;;;;;2.97;2.28;;;3.20;99.90;;;;;;5048194;28;20623;-76
2023/03/06 01:06:43;;;;;;;3.65;2.30;;;3.20;99.90;;;;;;5045713;28;20635;-77
2023/03/06 01:09:10;;;;;;;6.18;2.83;;;3.10;99.90;;;;;;5055501;28;20246;-77
2023/03/06 01:11:39;;;;;;;2.10;1.55;;;3.10;99.90;;;;;;5061428;28;20235;-76
2023/03/06 01:14:06;;;;;;;2.15;1.73;;;3.00;99.90;;;;;;5071430;28;20222;-76
2023/03/06 01:16:34;;;;;;;3.47;2.20;;;3.10;99.90;;;;;;5077768;28;20208;-76
2023/03/06 01:19:01;;;;;;;6.20;1.85;;;3.20;99.90;;;;;;5077599;28;20230;-76
2023/03/06 01:21:28;;;;;;;3.05;1.95;;;3.10;99.90;;;;;;5057271;28;20204;-75
2023/03/06 01:23:55;;;;;;;3.45;1.60;;;3.10;99.90;;;;;;5073066;28;20222;-76
2023/03/06 01:26:22;;;;;;;3.33;1.63;;;3.10;99.90;;;;;;5076507;28;20205;-75
2023/03/06 01:28:50;;;;;;;3.42;1.88;;;3.20;99.90;;;;;;5054893;28;20235;-75
2023/03/06 01:31:28;;;;;;;2.10;1.58;;;3.20;99.90;;;;;;5065904;28;20641;-76
2023/03/06 01:33:55;;;;;;;4.07;1.90;;;3.10;99.90;;;;;;5059025;28;20227;-75
2023/03/06 01:36:21;;;;;;;3.13;1.30;;;3.10;99.90;;;;;;5073008;28;20199;-75
2023/03/06 01:38:55;;;;;;;2.28;1.33;;;3.00;99.90;;;;;;5085689;28;20227;-75
2023/03/06 01:41:22;;;;;;;2.00;1.67;;;3.00;99.90;;;;;;5081781;28;20198;-75
2023/03/06 01:43:50;;;;;;;2.05;1.25;;;3.00;99.90;;;;;;5053329;28;20200;-76
2023/03/06 01:46:29;;;;;;;6.63;3.40;;;2.90;99.90;;;;;;5054846;28;20572;-76
2023/03/06 01:49:07;;;;;;;2.65;1.75;;;2.80;99.90;;;;;;5063894;28;20234;-77
2023/03/06 01:51:38;;;;;;;2.85;1.70;;;2.80;99.90;;;;;;5064098;28;20222;-78
2023/03/06 01:54:11;;;;;;;4.50;1.45;;;2.80;99.90;;;;;;5066787;28;20282;-76
2023/03/06 01:56:39;;;;;;;3.75;1.63;;;2.80;99.90;;;;;;5055410;28;20199;-77
2023/03/06 01:59:08;;;;;;;4.03;1.25;;;2.80;99.90;;;;;;5068369;28;20240;-76
2023/03/06 02:01:38;;;;;;;3.38;1.90;;;2.80;99.90;;;;;;5054593;28;20291;-77
2023/03/06 02:04:06;;;;;;;2.38;1.60;;;2.80;99.90;;;;;;5044093;28;20199;-74
2023/03/06 02:06:35;;;;;;;1.58;1.35;;;2.80;99.90;;;;;;5063902;28;20215;-78
2023/03/06 02:09:04;;;;;;;2.08;1.15;;;2.80;99.90;;;;;;5060745;28;20220;-77
2023/03/06 02:11:32;;;;;;;1.50;1.02;;;2.80;99.90;;;;;;5072814;28;20207;-76
2023/03/06 02:14:01;;;;;;;1.58;1.08;;;2.80;99.90;;;;;;5072187;28;20225;-74
2023/03/06 02:16:32;;;;;;;3.53;1.30;;;2.80;99.90;;;;;;5084922;28;20191;-75
2023/03/06 02:19:01;;;;;;;4.78;1.38;;;2.80;99.90;;;;;;5058599;28;20247;-76
2023/03/06 02:21:33;;;;;;;2.05;1.05;;;2.90;99.90;;;;;;5057009;28;20245;-77
2023/03/06 02:24:11;;;;;;;1.65;1.00;;;2.90;99.90;;;;;;5055420;28;20662;-76
2023/03/06 02:26:41;;;;;;;1.35;0.80;;;2.90;99.90;;;;;;5064679;28;20211;-76
2023/03/06 02:29:09;;;;;;;2.17;1.30;;;3.00;99.90;;;;;;5057565;28;20257;-76
2023/03/06 02:31:37;;;;;;;2.55;1.20;;;2.90;99.90;;;;;;5052086;28;20683;-77
2023/03/06 02:34:07;;;;;;;3.20;1.80;;;3.00;99.90;;;;;;5057467;28;20286;-76
2023/03/06 02:36:41;;;;;;;1.58;1.10;;;3.00;99.90;;;;;;5051373;28;20211;-76
2023/03/06 02:39:09;;;;;;;4.03;1.70;;;3.00;99.90;;;;;;5059587;28;20231;-76
2023/03/06 02:41:36;;;;;;;1.20;1.00;;;3.00;99.90;;;;;;5065242;28;20203;-76
2023/03/06 02:44:04;;;;;;;1.92;1.52;;;3.00;99.90;;;;;;5059754;28;20203;-76
2023/03/06 02:46:33;;;;;;;2.47;1.85;;;3.00;99.90;;;;;;5064875;28;20212;-77
2023/03/06 02:49:00;;;;;;;2.58;1.50;;;3.00;99.90;;;;;;5063243;28;20306;-76
2023/03/06 02:51:27;;;;;;;4.45;2.70;;;3.00;99.90;;;;;;5063595;28;20207;-77
2023/03/06 02:53:56;;;;;;;1.75;1.60;;;2.90;99.90;;;;;;5069885;28;20297;-76
2023/03/06 02:56:22;;;;;;;2.40;1.63;;;2.90;99.90;;;;;;5061980;28;20207;-77
2023/03/06 02:58:50;;;;;;;3.08;1.80;;;3.00;99.90;;;;;;5054547;28;20226;-76
2023/03/06 03:01:19;;;;;;;3.22;2.17;;;2.90;99.90;;;;;;5058047;28;20203;-77
2023/03/06 03:03:46;;;;;;;1.92;1.50;;;2.90;99.90;;;;;;5065276;28;20294;-77
2023/03/06 03:06:13;;;;;;;2.35;2.05;;;3.00;99.90;;;;;;5067244;28;20207;-77
2023/03/06 03:08:40;;;;;;;5.85;2.15;;;3.00;99.90;;;;;;5071328;28;20716;-76
2023/03/06 03:11:08;;;;;;;4.05;2.60;;;3.00;99.90;;;;;;5063461;28;20217;-75
2023/03/06 03:13:36;;;;;;;6.60;3.80;;;3.00;99.90;;;;;;5064795;28;20266;-76
2023/03/06 03:16:06;;;;;;;3.15;2.20;;;2.90;99.90;;;;;;5068227;28;20221;-77
2023/03/06 03:18:34;;;;;;;5.43;2.95;;;2.90;99.90;;;;;;5065676;28;20760;-77
2023/03/06 03:21:08;;;;;;;5.47;2.50;;;2.90;99.90;;;;;;5057948;28;20290;-76
2023/03/06 03:23:35;;;;;;;5.55;2.85;;;2.90;99.90;;;;;;5064791;28;20275;-76
2023/03/06 03:26:08;;;;;;;2.30;1.50;;;2.90;99.90;;;;;;5060914;28;20210;-76
2023/03/06 03:28:34;;;;;;;2.17;1.60;;;2.90;99.90;;;;;;5065552;28;20234;-76
2023/03/06 03:31:03;;;;;;;3.42;2.65;;;2.90;99.90;;;;;;5061424;28;20232;-76
2023/03/06 03:33:30;;;;;;;3.88;1.80;;;3.00;99.90;;;;;;5053889;28;20219;-77
2023/03/06 03:36:01;;;;;;;3.42;1.55;;;3.00;99.90;;;;;;5056370;28;20231;-75
2023/03/06 03:38:28;;;;;;;1.77;1.67;;;3.00;99.90;;;;;;5062943;28;20306;-77
2023/03/06 03:40:55;;;;;;;2.55;1.35;;;3.10;99.90;;;;;;5055172;28;20215;-77
2023/03/06 03:43:22;;;;;;;2.60;2.03;;;3.10;99.90;;;;;;5061314;28;20235;-77
2023/03/06 03:45:49;;;;;;;2.35;1.52;;;3.00;99.90;;;;;;5051945;28;20292;-76
2023/03/06 03:48:16;;;;;;;5.38;1.30;;;3.00;99.90;;;;;;5070524;28;20745;-77
2023/03/06 03:50:43;;;;;;;1.10;0.93;;;2.90;99.90;;;;;;5063763;28;20566;-77
2023/03/06 03:53:12;;;;;;;2.33;1.80;;;2.90;99.90;;;;;;5068679;28;20699;-76
2023/03/06 03:55:39;;;;;;;5.60;1.80;;;2.90;99.90;;;;;;5057041;28;20210;-77
2023/03/06 03:58:05;;;;;;;3.70;1.55;;;2.90;99.90;;;;;;5058637;28;20194;-77
2023/03/06 04:00:32;;;;;;;3.40;1.83;;;2.90;99.90;;;;;;5061577;28;20307;-77
2023/03/06 04:03:02;;;;;;;4.82;2.40;;;2.90;99.90;;;;;;5060813;28;20290;-77
2023/03/06 04:05:28;;;;;;;3.13;2.25;;;2.90;99.90;;;;;;5069281;28;20211;-77
2023/03/06 04:07:55;;;;;;;3.65;2.08;;;2.90;99.90;;;;;;5062814;28;20223;-76
2023/03/06 04:10:24;;;;;;;4.15;2.53;;;2.90;99.90;;;;;;5068185;28;20282;-77
2023/03/06 04:12:58;;;;;;;3.50;1.73;;;2.90;99.90;;;;;;5061356;28;20654;-77
2023/03/06 04:15:25;;;;;;;3.63;1.75;;;2.90;99.90;;;;;;5070111;28;20225;-76
2023/03/06 04:17:52;;;;;;;3.85;2.28;;;2.90;99.90;;;;;;5067308;28;20291;-76
2023/03/06 04:20:19;;;;;;;2.72;1.98;;;2.90;99.90;;;;;;5061547;28;20666;-77
2023/03/06 04:22:46;;;;;;;4.90;1.90;;;2.90;99.90;;;;;;5061062;28;20209;-77
2023/03/06 04:25:14;;;;;;;6.13;1.80;;;3.00;99.90;;;;;;5062110;28;20227;-77
2023/03/06 04:27:42;;;;;;;2.00;1.20;;;3.00;99.90;;;;;;5056941;28;20563;-77
2023/03/06 04:30:11;;;;;;;1.35;1.17;;;3.00;99.90;;;;;;5062529;28;20655;-77
2023/03/06 04:32:38;;;;;;;5.63;1.70;;;2.90;99.90;;;;;;5063562;28;20203;-77
2023/03/06 04:35:05;;;;;;;1.75;1.25;;;2.90;99.90;;;;;;5058551;28;20290;-77
2023/03/06 04:37:33;;;;;;;1.55;1.17;;;2.90;99.90;;;;;;5063098;28;20218;-77
2023/03/06 04:40:00;;;;;;;2.47;1.17;;;2.90;99.90;;;;;;5063094;28;20223;-78
2023/03/06 04:42:27;;;;;;;2.97;1.08;;;2.90;99.90;;;;;;5063305;28;20223;-76
2023/03/06 04:44:55;;;;;;;3.38;1.52;;;2.90;99.90;;;;;;5071742;28;20199;-77
2023/03/06 04:47:23;;;;;;;8.23;2.15;;;3.00;99.90;;;;;;5068572;28;20309;-77
2023/03/06 04:49:50;;;;;;;4.80;2.80;;;2.90;99.90;;;;;;5060867;28;20288;-77
2023/03/06 04:52:16;;;;;;;3.60;2.63;;;2.90;99.90;;;;;;5068500;28;20336;-77
2023/03/06 04:54:44;;;;;;;5.55;3.25;;;3.00;99.90;;;;;;5069184;28;20238;-75
2023/03/06 04:57:12;;;;;;;8.43;4.20;;;3.00;99.90;;;;;;5064055;28;20601;-77
2023/03/06 04:59:40;;;;;;;8.63;2.65;;;3.00;99.90;;;;;;5062216;28;20238;-77
2023/03/06 05:02:08;;;;;;;7.30;3.28;;;2.90;99.90;;;;;;5069183;28;20198;-75
2023/03/06 05:04:35;;;;;;;9.60;5.30;;;3.00;99.90;;;;;;5053959;28;20641;-76
2023/03/06 05:07:02;;;;;;;5.30;3.60;;;3.00;99.90;;;;;;5065228;28;20235;-76
2023/03/06 05:09:29;;;;;;;3.38;2.55;;;3.00;99.90;;;;;;5048969;28;20306;-76
2023/03/06 05:11:56;;;;;;;5.15;3.42;;;3.00;99.90;;;;;;5065516;28;20209;-76
2023/03/06 05:14:23;;;;;;;5.82;3.78;;;2.90;99.90;;;;;;5060090;28;20199;-76
2023/03/06 05:16:51;;;;;;;4.85;3.38;;;2.90;99.90;;;;;;5063715;28;20206;-77
2023/03/06 05:19:19;;;;;;;6.05;3.13;;;2.90;99.90;;;;;;5063007;28;20363;-76
2023/03/06 05:21:47;;;;;;;7.63;3.88;;;2.90;99.90;;;;;;5051144;28;20285;-75
2023/03/06 05:24:14;;;;;;;5.32;3.95;;;2.90;99.90;;;;;;5065310;28;20289;-76
2023/03/06 05:26:41;;;;;;;6.30;4.00;;;2.80;99.90;;;;;;5060792;28;20242;-77
2023/03/06 05:29:08;;;;;;;18.80;5.55;;;2.90;99.90;;;;;;5065276;28;20305;-77
2023/03/06 05:31:37;;;;;;;10.88;4.60;;;2.80;99.90;;;;;;5053644;28;20242;-77
2023/03/06 05:34:04;;;;;;;16.48;6.13;;;2.80;99.90;;;;;;5053643;28;20238;-76
2023/03/06 05:36:32;;;;;;;9.13;5.45;;;2.80;99.90;;;;;;5062567;28;20657;-77
2023/03/06 05:38:59;;;;;;;6.43;5.10;;;2.70;99.90;;;;;;5058641;28;20571;-77
2023/03/06 05:41:26;;;;;;;8.65;4.75;;;2.60;99.90;;;;;;5055178;28;20253;-75
2023/03/06 05:43:53;;;;;;;7.60;4.78;;;2.60;99.90;;;;;;5060694;28;20250;-77
2023/03/06 05:46:20;;;;;;;11.20;6.43;;;2.50;99.90;;;;;;5058711;28;20231;-78
2023/03/06 05:48:47;;;;;;;11.10;5.47;;;2.50;99.90;;;;;;5054883;28;20266;-76
2023/03/06 05:51:14;;;;;;;9.93;6.03;;;2.40;99.90;;;;;;5062315;28;20282;-76
2023/03/06 05:53:42;;;;;;;12.02;6.85;;;2.30;99.90;;;;;;5063342;28;20589;-78
2023/03/06 05:56:09;;;;;;;13.07;6.57;;;2.30;99.90;;;;;;5060630;28;20321;-77
2023/03/06 05:58:37;;;;;;;16.30;7.60;;;2.30;99.90;;;;;;5057640;28;20227;-77
2023/03/06 06:01:09;;;;;;;17.48;7.63;;;2.30;99.90;;;;;;5058766;28;20226;-77
2023/03/06 06:03:36;;;;;;;12.55;7.35;;;2.40;99.90;;;;;;5063012;28;20202;-77
2023/03/06 06:06:12;;;;;;;16.90;7.35;;;2.30;99.90;;;;;;5057736;28;20196;-77
2023/03/06 06:08:39;;;;;;;12.95;8.80;;;2.30;99.90;;;;;;5066705;28;20309;-75
2023/03/06 06:11:09;;;;;;;13.38;7.80;;;2.20;99.90;;;;;;5058251;28;20214;-77
2023/03/06 06:13:38;;;;;;;15.07;8.93;;;2.20;99.90;;;;;;5057538;28;20204;-78
2023/03/06 06:16:10;;;;;;;21.65;9.55;;;2.40;99.90;;;;;;5051578;28;20228;-77
2023/03/06 06:18:37;;;;;;;14.52;7.70;;;2.30;99.90;;;;;;5061902;28;20736;-78
2023/03/06 06:21:09;;;;;;;17.30;8.32;;;2.30;99.90;;;;;;5058464;28;20234;-77
2023/03/06 06:23:36;;;;;;;15.48;9.95;;;2.40;99.90;;;;;;5066986;28;20284;-78
2023/03/06 06:26:05;;;;;;;11.38;8.32;;;2.40;99.90;;;;;;5060244;28;20204;-75
2023/03/06 06:28:36;;;;;;;21.77;9.63;;;2.50;99.90;;;;;;5065082;28;20235;-76
2023/03/06 06:31:08;;;;;;;18.75;10.05;;;2.50;99.90;;;;;;5065952;28;20194;-76
2023/03/06 06:33:37;;;;;;;18.20;9.68;;;2.40;99.90;;;;;;5060226;28;20200;-76
2023/03/06 06:36:05;;;;;;;19.15;11.82;;;2.40;99.90;;;;;;5063477;28;20225;-76
2023/03/06 06:38:33;;;;;;;21.48;10.77;;;2.40;99.90;;;;;;5056094;28;20247;-76
2023/03/06 06:41:04;;;;;;;21.55;10.80;;;2.40;99.90;;;;;;5053115;28;20199;-76
2023/03/06 06:43:31;;;;;;;24.45;11.75;;;2.50;99.90;;;;;;5056016;28;20203;-75
2023/03/06 06:46:00;;;;;;;21.70;9.85;;;2.50;99.90;;;;;;5045271;28;20232;-75
2023/03/06 06:48:27;;;;;;;20.45;12.32;;;2.50;99.90;;;;;;5056618;28;20330;-76
2023/03/06 06:50:57;;;;;;;19.27;9.23;;;2.50;99.90;;;;;;5056425;28;20198;-76
2023/03/06 06:53:24;;;;;;;18.75;10.40;;;2.70;99.90;;;;;;5037262;28;20251;-77
2023/03/06 06:55:52;;;;;;;15.73;9.63;;;2.70;99.90;;;;;;5067334;28;20278;-76
2023/03/06 06:58:19;;;;;;;15.93;8.68;;;2.80;99.90;;;;;;5063425;28;20219;-75
2023/03/06 07:00:47;;;;;;;20.02;11.20;;;3.00;99.90;;;;;;5041339;28;20227;-75
2023/03/06 07:03:16;;;;;;;17.90;8.10;;;2.90;99.90;;;;;;5057388;28;20314;-73
2023/03/06 07:05:44;;;;;;;21.60;9.98;;;3.00;99.90;;;;;;5047237;28;20192;-74
2023/03/06 07:08:10;;;;;;;13.02;7.65;;;3.10;99.90;;;;;;5065559;28;20305;-74
2023/03/06 07:10:43;;;;;;;11.48;6.07;;;3.00;99.90;;;;;;5052363;28;20646;-74
2023/03/06 07:13:10;;;;;;;12.45;7.78;;;3.10;99.90;;;;;;5050513;28;20310;-75
2023/03/06 07:15:37;;;;;;;14.18;7.15;;;3.00;99.90;;;;;;5044774;28;20208;-74
2023/03/06 07:18:06;;;;;;;16.40;9.43;;;3.00;99.90;;;;;;5057553;28;20702;-76
2023/03/06 07:20:35;;;;;;;12.68;8.02;;;3.10;99.90;;;;;;5049444;28;20203;-75
2023/03/06 07:23:04;;;;;;;11.10;6.88;;;3.10;99.90;;;;;;5058439;28;20594;-75
2023/03/06 07:25:31;;;;;;;16.17;8.63;;;3.10;99.90;;;;;;5064171;28;20290;-75
2023/03/06 07:27:58;;;;;;;15.07;8.27;;;3.10;99.90;;;;;;5057689;28;20208;-74
2023/03/06 07:30:26;;;;;;;12.75;8.13;;;3.10;99.90;;;;;;5059956;28;20290;-75
2023/03/06 07:32:54;;;;;;;16.25;8.10;;;3.20;99.90;;;;;;5056746;28;20309;-75
2023/03/06 07:35:21;;;;;;;13.27;8.30;;;3.30;99.90;;;;;;5054367;28;20608;-74
2023/03/06 07:37:50;;;;;;;21.67;8.70;;;3.30;99.90;;;;;;5058024;28;20240;-74
2023/03/06 07:40:19;;;;;;;18.73;9.82;;;3.50;99.90;;;;;;5053669;28;20255;-75
2023/03/06 07:42:46;;;;;;;12.80;8.55;;;3.80;99.90;;;;;;5064135;28;20213;-75
2023/03/06 07:45:15;;;;;;;18.73;10.13;;;4.30;99.90;;;;;;5053526;28;20344;-77
2023/03/06 07:47:42;;;;;;;13.35;9.50;;;4.60;99.90;;;;;;5062130;28;20286;-78
2023/03/06 07:50:10;;;;;;;15.77;10.55;;;5.00;99.90;;;;;;5055572;28;20273;-73
2023/03/06 07:52:37;;;;;;;14.30;9.60;;;5.30;99.90;;;;;;5049717;28;20235;-75
2023/03/06 07:55:08;;;;;;;13.48;8.60;;;5.40;99.90;;;;;;5050864;28;20195;-77
2023/03/06 07:57:35;;;;;;;16.50;9.27;;;5.70;99.90;;;;;;5061804;28;20205;-74
2023/03/06 08:00:02;;;;;;;16.85;10.07;;;5.70;99.90;;;;;;5057790;28;20608;-77
2023/03/06 08:02:29;;;;;;;14.52;8.80;;;5.80;99.90;;;;;;5052682;28;20204;-77
2023/03/06 08:04:57;;;;;;;22.30;10.75;;;5.70;99.90;;;;;;5051536;28;20291;-75
2023/03/06 08:07:24;;;;;;;17.25;9.65;;;5.50;99.90;;;;;;5055442;28;20212;-76
2023/03/06 08:09:51;;;;;;;16.65;10.20;;;5.10;99.90;;;;;;5050512;28;20260;-76
2023/03/06 08:12:19;;;;;;;19.70;11.02;;;4.80;99.90;;;;;;5058186;28;20230;-77
2023/03/06 08:14:47;;;;;;;19.83;9.45;;;4.70;99.90;;;;;;5051984;28;20204;-77
2023/03/06 08:17:14;;;;;;;17.90;11.63;;;4.60;99.90;;;;;;5053597;28;20203;-76
2023/03/06 08:19:41;;;;;;;24.10;13.00;;;4.40;99.90;;;;;;5053530;28;20226;-76
2023/03/06 08:22:09;;;;;;;25.05;13.65;;;4.50;99.90;;;;;;5046255;28;20202;-75
2023/03/06 08:24:37;;;;;;;25.52;13.30;;;4.50;99.90;;;;;;5058439;28;20215;-77
2023/03/06 08:27:04;;;;;;;21.83;10.93;;;4.40;99.90;;;;;;5050696;28;20207;-76
2023/03/06 08:29:32;;;;;;;20.35;11.52;;;4.60;99.90;;;;;;5059226;28;20237;-77
2023/03/06 08:31:59;;;;;;;21.10;10.20;;;5.20;99.90;;;;;;5057558;28;20741;-75
2023/03/06 08:34:26;;;;;;;17.98;10.50;;;5.80;99.90;;;;;;5064913;28;20219;-77
2023/03/06 08:36:53;;;;;;;16.20;10.45;;;6.10;99.90;;;;;;5046898;28;20210;-75
2023/03/06 08:39:22;;;;;;;15.77;9.85;;;7.00;99.90;;;;;;5051175;28;20288;-74
2023/03/06 08:41:49;;;;;;;14.95;9.02;;;8.60;99.90;;;;;;5053916;28;20242;-77
2023/03/06 08:44:16;;;;;;;15.80;10.50;;;10.30;99.90;;;;;;5054425;28;20300;-76
2023/03/06 08:46:45;;;;;;;12.30;8.88;;;11.20;99.90;;;;;;5055920;28;20212;-75
2023/03/06 08:49:12;;;;;;;12.45;9.98;;;10.90;99.90;;;;;;5061615;28;20253;-76
2023/03/06 08:51:39;;;;;;;17.90;11.57;;;10.40;99.90;;;;;;5055097;28;20196;-76
2023/03/06 08:54:06;;;;;;;17.63;10.73;;;9.80;99.90;;;;;;5056577;28;20233;-76
2023/03/06 08:56:34;;;;;;;13.90;9.82;;;9.40;99.90;;;;;;5053079;28;20231;-75
2023/03/06 08:59:02;;;;;;;16.48;8.95;;;8.80;99.90;;;;;;5065009;28;20224;-76
2023/03/06 09:01:33;;;;;;;15.40;9.75;;;9.30;99.90;;;;;;5063535;28;20231;-75
2023/03/06 09:04:03;;;;;;;17.92;9.65;;;9.50;99.90;;;;;;5057147;28;20262;-74
2023/03/06 09:06:40;;;;;;;15.05;8.85;;;10.30;99.90;;;;;;5062113;28;20210;-75
2023/03/06 09:09:08;;;;;;;11.45;8.80;;;10.20;99.90;;;;;;5060483;28;20221;-75
2023/03/06 09:11:35;;;;;;;12.77;8.73;;;10.50;99.90;;;;;;5063176;28;20729;-77
2023/03/06 09:14:03;;;;;;;12.98;8.70;;;10.90;99.90;;;;;;5061408;28;20195;-76
2023/03/06 09:16:30;;;;;;;14.27;9.02;;;11.40;99.90;;;;;;5055921;28;20210;-76
2023/03/06 09:18:58;;;;;;;8.18;6.55;;;12.00;98.20;;;;;;5057400;28;20227;-77
2023/03/06 09:21:27;;;;;;;9.45;7.78;;;12.70;97.10;;;;;;5049201;28;20213;-75
2023/03/06 09:23:54;;;;;;;11.43;8.18;;;12.10;95.40;;;;;;5051488;28;20734;-77
2023/03/06 09:26:22;;;;;;;5.72;5.07;;;12.40;96.80;;;;;;5057309;28;20203;-76
2023/03/06 09:28:49;;;;;;;11.27;6.65;;;12.70;94.40;;;;;;5041985;28;20223;-76
2023/03/06 09:31:19;;;;;;;7.18;4.70;;;12.10;95.20;;;;;;5051323;28;20298;-77
2023/03/06 09:33:47;;;;;;;6.80;4.53;;;12.40;95.30;;;;;;5056616;28;20234;-76
2023/03/06 09:36:16;;;;;;;4.90;3.90;;;13.00;95.40;;;;;;5055130;28;20216;-76
2023/03/06 09:38:47;;;;;;;6.75;4.80;;;13.50;93.10;;;;;;5062929;28;20251;-77
2023/03/06 09:41:25;;;;;;;6.13;4.22;;;13.20;92.20;;;;;;5058087;28;20199;-76
2023/03/06 09:43:55;;;;;;;6.90;4.75;;;13.40;92.50;;;;;;5054241;28;20229;-76
2023/03/06 09:46:29;;;;;;;6.50;4.53;;;12.80;92.70;;;;;;5053777;28;20195;-77
2023/03/06 09:49:30;;;;;;;5.95;3.92;;;12.60;94.10;;;;;;5057539;28;20621;-78
2023/03/06 09:52:06;;;;;;;5.30;3.25;;;12.50;93.20;;;;;;5052342;28;20211;-76
2023/03/06 09:54:42;;;;;;;17.67;9.35;;;12.90;94.10;;;;;;5059457;28;20200;-78
2023/03/06 09:57:18;;;;;;;8.52;4.40;;;13.60;92.30;;;;;;5058817;28;20239;-77
2023/03/06 09:59:50;;;;;;;6.13;3.50;;;13.70;92.00;;;;;;5051211;28;20231;-77
2023/03/06 10:02:24;;;;;;;6.45;2.80;;;13.80;91.80;;;;;;5048496;28;20282;-75
2023/03/06 10:04:58;;;;;;;5.82;4.65;;;13.60;90.90;;;;;;5056870;28;20202;-77
2023/03/06 10:07:35;;;;;;;5.88;3.35;;;13.30;91.10;;;;;;5056621;28;20231;-78
2023/03/06 10:10:07;;;;;;;9.60;3.42;;;14.00;91.80;;;;;;5049206;28;20305;-77
2023/03/06 10:12:37;;;;;;;6.97;3.00;;;14.00;90.40;;;;;;5053947;28;20214;-77
2023/03/06 10:15:17;;;;;;;4.65;3.30;;;13.70;90.70;;;;;;5049435;28;20281;-77
2023/03/06 10:17:44;;;;;;;12.98;4.47;;;13.20;92.10;;;;;;5051400;28;20286;-77
2023/03/06 10:20:19;;;;;;;7.50;3.60;;;13.20;91.80;;;;;;5050079;28;20644;-77
2023/03/06 10:23:14;;;;;;;5.95;3.65;;;13.10;91.60;;;;;;5058347;28;20387;-77
2023/03/06 10:25:52;;;;;;;5.28;2.22;;;12.90;92.20;;;;;;5054874;28;20253;-77
2023/03/06 10:28:23;;;;;;;4.22;2.83;;;12.70;92.50;;;;;;5062360;28;20292;-77
2023/03/06 10:30:56;;;;;;;5.65;2.88;;;12.70;92.70;;;;;;5047575;28;20263;-77
2023/03/06 10:33:39;;;;;;;6.28;2.88;;;12.50;92.60;;;;;;5051733;28;20584;-77
2023/03/06 10:36:09;;;;;;;9.50;8.38;;;12.60;92.80;;;;;;5036471;28;20206;-77
2023/03/06 10:38:37;;;;;;;5.85;3.45;;;12.70;92.40;;;;;;5032413;28;20227;-77
2023/03/06 10:41:44;;;;;;;4.63;2.53;;;12.60;92.20;;;;;;5044586;28;20202;-75
2023/03/06 10:44:21;;;;;;;3.88;2.30;;;12.70;92.80;;;;;;5055169;28;20272;-77
2023/03/06 10:46:50;;;;;;;4.40;2.17;;;13.30;92.20;;;;;;5065761;28;20294;-76
2023/03/06 10:49:32;;;;;;;5.60;3.05;;;13.60;91.50;;;;;;5053067;28;20264;-74
2023/03/06 10:52:04;;;;;;;15.07;4.82;;;13.10;91.90;;;;;;5055028;28;20227;-75
2023/03/06 10:54:33;;;;;;;5.05;2.85;;;12.60;91.80;;;;;;5054842;28;20631;-76
2023/03/06 10:57:19;;;;;;;5.45;2.78;;;11.60;92.90;;;;;;5047658;28;20201;-75
2023/03/06 10:59:53;;;;;;;5.55;2.75;;;10.70;94.40;;;;;;5061413;28;20214;-74
2023/03/06 11:02:30;;;;;;;7.05;3.28;;;10.40;96.10;;;;;;5042717;28;20203;-76
2023/03/06 11:04:58;;;;;;;5.20;4.00;;;10.30;96.90;;;;;;5048738;28;20235;-77
2023/03/06 11:07:27;;;;;;;7.78;3.60;;;10.20;98.10;;;;;;5052827;28;20257;-76
2023/03/06 11:10:17;;;;;;;7.20;3.15;;;10.20;98.00;;;;;;5052033;28;20284;-78
2023/03/06 11:12:57;;;;;;;4.70;3.75;;;9.90;99.80;;;;;;5064577;28;20199;-74
2023/03/06 11:15:26;;;;;;;5.38;3.60;;;9.60;99.90;;;;;;5063952;28;20239;-75
2023/03/06 11:18:00;;;;;;;10.32;4.55;;;9.40;99.90;;;;;;5067527;28;20203;-75
2023/03/06 11:20:31;;;;;;;5.32;4.35;;;9.30;99.90;;;;;;5042999;28;20654;-76
2023/03/06 11:23:06;;;;;;;8.73;3.58;;;8.90;99.90;;;;;;5054607;28;20204;-76
2023/03/06 11:25:37;;;;;;;4.82;3.70;;;8.60;99.90;;;;;;5053322;28;20294;-77
2023/03/06 11:28:11;;;;;;;7.75;4.28;;;8.40;99.90;;;;;;5051046;28;20295;-77
2023/03/06 11:30:46;;;;;;;8.10;3.55;;;8.30;99.90;;;;;;5062124;28;20245;-75
2023/03/06 11:33:22;;;;;;;3.53;2.92;;;8.30;99.90;;;;;;5056992;28;20716;-76
2023/03/06 11:35:58;;;;;;;7.32;3.78;;;8.30;99.90;;;;;;5057540;28;20275;-76
2023/03/06 11:38:35;;;;;;;13.73;3.72;;;8.50;99.90;;;;;;5055502;28;20301;-78
2023/03/06 11:41:08;;;;;;;4.05;2.97;;;8.50;99.90;;;;;;5060462;28;20257;-77
2023/03/06 11:43:41;;;;;;;5.93;2.63;;;8.50;99.90;;;;;;5055932;28;20554;-76
2023/03/06 11:46:18;;;;;;;6.30;3.45;;;8.40;99.90;;;;;;5056691;28;20265;-76
2023/03/06 11:48:52;;;;;;;6.47;3.03;;;8.60;99.90;;;;;;5065430;28;20230;-75
2023/03/06 11:51:24;;;;;;;7.72;3.45;;;8.70;99.90;;;;;;5057471;28;20744;-75
2023/03/06 11:53:52;;;;;;;6.45;3.05;;;8.50;99.90;;;;;;5065977;28;20643;-76
2023/03/06 11:56:30;;;;;;;5.20;3.67;;;8.40;99.90;;;;;;5072670;28;20218;-76
2023/03/06 11:59:05;;;;;;;5.10;2.85;;;8.20;99.90;;;;;;5067141;28;20226;-76
2023/03/06 12:01:39;;;;;;;4.85;3.20;;;8.20;99.90;;;;;;5064087;28;20281;-76
2023/03/06 12:04:30;;;;;;;5.70;2.80;;;8.20;99.90;;;;;;5064214;28;20233;-75
2023/03/06 12:07:04;;;;;;;16.15;4.72;;;8.30;99.90;;;;;;5045745;28;20279;-76
2023/03/06 12:09:48;;;;;;;5.65;2.30;;;8.30;99.90;;;;;;5058290;28;20234;-75
2023/03/06 12:12:28;;;;;;;7.18;3.97;;;8.20;99.90;;;;;;5060536;28;20261;-77
2023/03/06 12:15:15;;;;;;;5.50;2.17;;;8.40;99.90;;;;;;5053266;28;20235;-77
2023/03/06 12:18:00;;;;;;;7.80;3.53;;;8.10;99.90;;;;;;5064776;28;20242;-74
2023/03/06 12:20:41;;;;;;;8.75;2.10;;;8.20;99.90;;;;;;5067904;28;20269;-74
2023/03/06 12:23:20;;;;;;;5.40;2.55;;;7.90;99.90;;;;;;5068999;28;20200;-73
2023/03/06 12:25:54;;;;;;;5.00;1.73;;;8.10;99.90;;;;;;5060851;28;20206;-75
2023/03/06 12:28:38;;;;;;;4.60;2.47;;;8.10;99.90;;;;;;5062040;28;20234;-75
2023/03/06 12:31:28;;;;;;;3.20;1.38;;;8.10;97.30;;;;;;5064967;28;20711;-74
2023/03/06 12:34:17;;;;;;;3.70;1.33;;;7.80;97.10;;;;;;5059599;28;20657;-75
2023/03/06 12:37:03;;;;;;;2.65;1.30;;;7.70;97.40;;;;;;5056906;28;20556;-76
2023/03/06 12:39:46;;;;;;;7.80;1.55;;;7.70;96.20;;;;;;5060147;28;20658;-75
2023/03/06 12:42:29;;;;;;;1.77;0.95;;;7.80;96.10;;;;;;5063382;28;20206;-74
2023/03/06 12:45:10;;;;;;;6.18;1.70;;;7.90;95.70;;;;;;5050532;28;20574;-74
2023/03/06 12:47:43;;;;;;;2.88;1.30;;;7.50;94.20;;;;;;5060808;28;20262;-75
2023/03/06 12:50:22;;;;;;;5.65;1.52;;;6.90;94.60;;;;;;5059059;28;20273;-74
2023/03/06 12:52:50;;;;;;;3.65;1.05;;;6.90;95.10;;;;;;5060633;28;20591;-74
2023/03/06 12:55:19;;;;;;;3.83;0.80;;;6.90;95.80;;;;;;5057666;28;20496;-76
2023/03/06 12:57:47;;;;;;;4.70;1.45;;;6.80;95.60;;;;;;5057239;28;20186;-75
2023/03/06 13:00:50;;;;;;;7.18;1.92;;;6.70;96.20;;;;;;5051945;28;20640;-74
2023/03/06 13:03:19;;;;;;;3.17;1.30;;;6.90;97.20;;;;;;5046351;28;20840;-76
2023/03/06 13:06:21;;;;;;;6.18;2.08;;;6.80;97.20;;;;;;5056371;28;20253;-74